sensor_id;sensor_type;location;lat;lon;timestamp;temperature;humidity
57636;DHT22;43465;50.728;4.160;2022-07-23T00:02:00;18.30;99.90
57636;DHT22;43465;50.728;4.160;2022-07-23T00:04:25;18.30;99.90
57636;DHT22;43465;50.728;4.160;2022-07-23T00:06:51;18.40;99.90
57636;DHT22;43465;50.728;4.160;2022-07-23T00:09:16;18.40;99.90
57636;DHT22;43465;50.728;4.160;2022-07-23T00:11:42;18.30;99.90
57636;DHT22;43465;50.728;4.160;2022-07-23T00:14:08;18.30;99.90
57636;DHT22;43465;50.728;4.160;2022-07-23T00:16:33;18.20;99.90
57636;DHT22;43465;50.728;4.160;2022-07-23T00:18:59;18.20;99.90
57636;DHT22;43465;50.728;4.160;2022-07-23T00:21:26;18.20;99.90
57636;DHT22;43465;50.728;4.160;2022-07-23T00:23:52;18.30;99.90
57636;DHT22;43465;50.728;4.160;2022-07-23T00:26:18;18.20;99.90
57636;DHT22;43465;50.728;4.160;2022-07-23T00:28:43;18.20;99.90
57636;DHT22;43465;50.728;4.160;2022-07-23T00:31:09;18.10;99.90
57636;DHT22;43465;50.728;4.160;2022-07-23T00:33:35;18.10;99.90
57636;DHT22;43465;50.728;4.160;2022-07-23T00:36:00;18.10;99.90
57636;DHT22;43465;50.728;4.160;2022-07-23T00:38:29;18.10;99.90
57636;DHT22;43465;50.728;4.160;2022-07-23T00:40:58;18.10;99.90
57636;DHT22;43465;50.728;4.160;2022-07-23T00:43:23;18.10;99.90
57636;DHT22;43465;50.728;4.160;2022-07-23T00:45:50;18.00;99.90
57636;DHT22;43465;50.728;4.160;2022-07-23T00:48:16;18.00;99.90
57636;DHT22;43465;50.728;4.160;2022-07-23T00:50:43;18.00;99.90
57636;DHT22;43465;50.728;4.160;2022-07-23T00:53:09;18.00;99.90
57636;DHT22;43465;50.728;4.160;2022-07-23T00:55:35;17.90;99.90
57636;DHT22;43465;50.728;4.160;2022-07-23T00:58:01;17.80;99.90
57636;DHT22;43465;50.728;4.160;2022-07-23T01:00:28;17.80;99.90
57636;DHT22;43465;50.728;4.160;2022-07-23T01:02:53;17.70;99.90
57636;DHT22;43465;50.728;4.160;2022-07-23T01:05:20;17.70;99.90
57636;DHT22;43465;50.728;4.160;2022-07-23T01:07:49;17.70;99.90
57636;DHT22;43465;50.728;4.160;2022-07-23T01:10:14;17.80;99.90
57636;DHT22;43465;50.728;4.160;2022-07-23T01:13:00;17.90;99.90
57636;DHT22;43465;50.728;4.160;2022-07-23T01:15:26;17.90;99.90
57636;DHT22;43465;50.728;4.160;2022-07-23T01:17:51;17.80;99.90
57636;DHT22;43465;50.728;4.160;2022-07-23T01:20:27;17.80;99.90
57636;DHT22;43465;50.728;4.160;2022-07-23T01:22:53;17.70;99.90
57636;DHT22;43465;50.728;4.160;2022-07-23T01:25:19;17.60;99.90
57636;DHT22;43465;50.728;4.160;2022-07-23T01:27:45;17.70;99.90
57636;DHT22;43465;50.728;4.160;2022-07-23T01:30:14;17.70;99.90
57636;DHT22;43465;50.728;4.160;2022-07-23T01:32:40;17.70;99.90
57636;DHT22;43465;50.728;4.160;2022-07-23T01:35:06;17.70;99.90
57636;DHT22;43465;50.728;4.160;2022-07-23T01:37:32;17.70;99.90
57636;DHT22;43465;50.728;4.160;2022-07-23T01:39:58;17.70;99.90
57636;DHT22;43465;50.728;4.160;2022-07-23T01:42:24;17.60;99.90
57636;DHT22;43465;50.728;4.160;2022-07-23T01:44:50;17.50;99.90
57636;DHT22;43465;50.728;4.160;2022-07-23T01:47:16;17.40;99.90
57636;DHT22;43465;50.728;4.160;2022-07-23T01:49:41;17.40;99.90
57636;DHT22;43465;50.728;4.160;2022-07-23T01:52:07;17.40;99.90
57636;DHT22;43465;50.728;4.160;2022-07-23T01:54:37;17.40;99.90
57636;DHT22;43465;50.728;4.160;2022-07-23T01:57:03;17.50;99.90
57636;DHT22;43465;50.728;4.160;2022-07-23T01:59:29;17.50;99.90
57636;DHT22;43465;50.728;4.160;2022-07-23T02:01:55;17.50;99.90
57636;DHT22;43465;50.728;4.160;2022-07-23T02:04:22;17.40;99.90
57636;DHT22;43465;50.728;4.160;2022-07-23T02:06:48;17.40;99.90
57636;DHT22;43465;50.728;4.160;2022-07-23T02:09:20;17.40;99.90
57636;DHT22;43465;50.728;4.160;2022-07-23T02:11:45;17.50;99.90
57636;DHT22;43465;50.728;4.160;2022-07-23T02:14:11;17.50;99.90
57636;DHT22;43465;50.728;4.160;2022-07-23T02:16:37;17.50;99.90
57636;DHT22;43465;50.728;4.160;2022-07-23T02:19:03;17.60;99.90
57636;DHT22;43465;50.728;4.160;2022-07-23T02:21:29;17.60;99.90
57636;DHT22;43465;50.728;4.160;2022-07-23T02:23:54;17.60;99.90
57636;DHT22;43465;50.728;4.160;2022-07-23T02:26:20;17.60;99.90
57636;DHT22;43465;50.728;4.160;2022-07-23T02:28:46;17.50;99.90
57636;DHT22;43465;50.728;4.160;2022-07-23T02:31:11;17.50;99.90
57636;DHT22;43465;50.728;4.160;2022-07-23T02:33:37;17.50;99.90
57636;DHT22;43465;50.728;4.160;2022-07-23T02:36:02;17.60;99.90
57636;DHT22;43465;50.728;4.160;2022-07-23T02:38:28;17.50;99.90
57636;DHT22;43465;50.728;4.160;2022-07-23T02:40:54;17.60;99.90
57636;DHT22;43465;50.728;4.160;2022-07-23T02:43:19;17.50;99.90
57636;DHT22;43465;50.728;4.160;2022-07-23T02:45:45;17.50;99.90
57636;DHT22;43465;50.728;4.160;2022-07-23T02:48:11;17.50;99.90
57636;DHT22;43465;50.728;4.160;2022-07-23T02:50:38;17.50;99.90
57636;DHT22;43465;50.728;4.160;2022-07-23T02:53:04;17.40;99.90
57636;DHT22;43465;50.728;4.160;2022-07-23T02:55:29;17.40;99.90
57636;DHT22;43465;50.728;4.160;2022-07-23T02:57:56;17.30;99.90
57636;DHT22;43465;50.728;4.160;2022-07-23T03:00:22;17.30;99.90
57636;DHT22;43465;50.728;4.160;2022-07-23T03:02:48;17.20;99.90
57636;DHT22;43465;50.728;4.160;2022-07-23T03:05:13;17.10;99.90
57636;DHT22;43465;50.728;4.160;2022-07-23T03:07:39;17.10;99.90
57636;DHT22;43465;50.728;4.160;2022-07-23T03:10:05;17.10;99.90
57636;DHT22;43465;50.728;4.160;2022-07-23T03:12:31;17.10;99.90
57636;DHT22;43465;50.728;4.160;2022-07-23T03:14:56;17.10;99.90
57636;DHT22;43465;50.728;4.160;2022-07-23T03:17:22;17.10;99.90
57636;DHT22;43465;50.728;4.160;2022-07-23T03:19:48;17.10;99.90
57636;DHT22;43465;50.728;4.160;2022-07-23T03:22:13;17.10;99.90
57636;DHT22;43465;50.728;4.160;2022-07-23T03:24:39;17.10;99.90
57636;DHT22;43465;50.728;4.160;2022-07-23T03:27:23;17.10;99.90
57636;DHT22;43465;50.728;4.160;2022-07-23T03:29:51;17.10;99.90
57636;DHT22;43465;50.728;4.160;2022-07-23T03:32:17;17.00;99.90
57636;DHT22;43465;50.728;4.160;2022-07-23T03:34:46;17.00;99.90
57636;DHT22;43465;50.728;4.160;2022-07-23T03:37:12;17.00;99.90
57636;DHT22;43465;50.728;4.160;2022-07-23T03:39:37;16.90;99.90
57636;DHT22;43465;50.728;4.160;2022-07-23T03:42:03;16.90;99.90
57636;DHT22;43465;50.728;4.160;2022-07-23T03:44:29;16.90;99.90
57636;DHT22;43465;50.728;4.160;2022-07-23T03:46:55;16.90;99.90
57636;DHT22;43465;50.728;4.160;2022-07-23T03:49:24;16.90;99.90
57636;DHT22;43465;50.728;4.160;2022-07-23T03:51:49;17.00;99.90
57636;DHT22;43465;50.728;4.160;2022-07-23T03:54:18;17.00;99.90
57636;DHT22;43465;50.728;4.160;2022-07-23T03:56:44;17.00;99.90
57636;DHT22;43465;50.728;4.160;2022-07-23T03:59:09;17.00;99.90
57636;DHT22;43465;50.728;4.160;2022-07-23T04:01:35;17.00;99.90
57636;DHT22;43465;50.728;4.160;2022-07-23T04:04:01;17.10;99.90
57636;DHT22;43465;50.728;4.160;2022-07-23T04:06:27;17.00;99.90
57636;DHT22;43465;50.728;4.160;2022-07-23T04:08:53;16.90;99.90
57636;DHT22;43465;50.728;4.160;2022-07-23T04:11:18;16.90;99.90
57636;DHT22;43465;50.728;4.160;2022-07-23T04:13:44;16.80;99.90
57636;DHT22;43465;50.728;4.160;2022-07-23T04:16:09;16.80;99.90
57636;DHT22;43465;50.728;4.160;2022-07-23T04:18:35;16.80;99.90
57636;DHT22;43465;50.728;4.160;2022-07-23T04:21:01;16.90;99.90
57636;DHT22;43465;50.728;4.160;2022-07-23T04:23:26;16.80;99.90
57636;DHT22;43465;50.728;4.160;2022-07-23T04:25:52;16.80;99.90
57636;DHT22;43465;50.728;4.160;2022-07-23T04:28:18;16.70;99.90
57636;DHT22;43465;50.728;4.160;2022-07-23T04:30:44;16.80;99.90
57636;DHT22;43465;50.728;4.160;2022-07-23T04:33:09;16.90;99.90
57636;DHT22;43465;50.728;4.160;2022-07-23T04:35:35;17.00;99.90
57636;DHT22;43465;50.728;4.160;2022-07-23T04:38:02;17.10;99.90
57636;DHT22;43465;50.728;4.160;2022-07-23T04:40:28;17.20;99.90
57636;DHT22;43465;50.728;4.160;2022-07-23T04:42:54;17.20;99.90
57636;DHT22;43465;50.728;4.160;2022-07-23T04:45:20;17.20;99.90
57636;DHT22;43465;50.728;4.160;2022-07-23T04:47:45;17.20;99.90
57636;DHT22;43465;50.728;4.160;2022-07-23T04:50:11;17.20;99.90
57636;DHT22;43465;50.728;4.160;2022-07-23T04:52:37;17.10;99.90
57636;DHT22;43465;50.728;4.160;2022-07-23T04:55:03;17.10;99.90
57636;DHT22;43465;50.728;4.160;2022-07-23T04:57:29;17.00;99.90
57636;DHT22;43465;50.728;4.160;2022-07-23T04:59:54;17.00;99.90
57636;DHT22;43465;50.728;4.160;2022-07-23T05:02:20;17.00;99.90
57636;DHT22;43465;50.728;4.160;2022-07-23T05:04:46;17.00;99.90
57636;DHT22;43465;50.728;4.160;2022-07-23T05:07:15;17.00;99.90
57636;DHT22;43465;50.728;4.160;2022-07-23T05:09:40;17.10;99.90
57636;DHT22;43465;50.728;4.160;2022-07-23T05:12:06;17.20;99.90
57636;DHT22;43465;50.728;4.160;2022-07-23T05:14:32;17.20;99.90
57636;DHT22;43465;50.728;4.160;2022-07-23T05:16:57;17.30;99.90
57636;DHT22;43465;50.728;4.160;2022-07-23T05:19:23;17.40;99.90
57636;DHT22;43465;50.728;4.160;2022-07-23T05:21:49;17.40;99.90
57636;DHT22;43465;50.728;4.160;2022-07-23T05:24:15;17.40;99.90
57636;DHT22;43465;50.728;4.160;2022-07-23T05:26:40;17.50;99.90
57636;DHT22;43465;50.728;4.160;2022-07-23T05:29:06;17.50;99.90
57636;DHT22;43465;50.728;4.160;2022-07-23T05:31:35;17.50;99.90
57636;DHT22;43465;50.728;4.160;2022-07-23T05:34:00;17.70;99.90
57636;DHT22;43465;50.728;4.160;2022-07-23T05:36:26;17.70;99.90
57636;DHT22;43465;50.728;4.160;2022-07-23T05:38:52;17.80;99.90
57636;DHT22;43465;50.728;4.160;2022-07-23T05:41:17;18.00;99.90
57636;DHT22;43465;50.728;4.160;2022-07-23T05:43:43;18.00;99.90
57636;DHT22;43465;50.728;4.160;2022-07-23T05:46:09;18.10;99.90
57636;DHT22;43465;50.728;4.160;2022-07-23T05:48:34;18.10;99.90
57636;DHT22;43465;50.728;4.160;2022-07-23T05:51:00;18.30;99.90
57636;DHT22;43465;50.728;4.160;2022-07-23T05:53:26;18.40;99.90
57636;DHT22;43465;50.728;4.160;2022-07-23T05:55:52;18.50;99.90
57636;DHT22;43465;50.728;4.160;2022-07-23T05:58:17;18.60;99.90
57636;DHT22;43465;50.728;4.160;2022-07-23T06:00:43;18.70;99.90
57636;DHT22;43465;50.728;4.160;2022-07-23T06:03:08;18.90;99.90
57636;DHT22;43465;50.728;4.160;2022-07-23T06:05:34;19.00;99.90
57636;DHT22;43465;50.728;4.160;2022-07-23T06:08:00;19.20;99.90
57636;DHT22;43465;50.728;4.160;2022-07-23T06:10:25;19.20;99.90
57636;DHT22;43465;50.728;4.160;2022-07-23T06:12:51;19.20;99.90
57636;DHT22;43465;50.728;4.160;2022-07-23T06:15:16;19.20;99.90
57636;DHT22;43465;50.728;4.160;2022-07-23T06:17:42;19.20;99.90
57636;DHT22;43465;50.728;4.160;2022-07-23T06:20:09;19.20;99.90
57636;DHT22;43465;50.728;4.160;2022-07-23T06:22:35;19.30;99.90
57636;DHT22;43465;50.728;4.160;2022-07-23T06:25:02;19.50;99.90
57636;DHT22;43465;50.728;4.160;2022-07-23T06:27:28;19.50;99.90
57636;DHT22;43465;50.728;4.160;2022-07-23T06:29:54;19.40;99.90
57636;DHT22;43465;50.728;4.160;2022-07-23T06:32:19;19.40;99.90
57636;DHT22;43465;50.728;4.160;2022-07-23T06:34:45;19.50;99.90
57636;DHT22;43465;50.728;4.160;2022-07-23T06:37:11;19.50;99.90
57636;DHT22;43465;50.728;4.160;2022-07-23T06:39:37;19.50;99.90
57636;DHT22;43465;50.728;4.160;2022-07-23T06:42:03;19.50;99.90
57636;DHT22;43465;50.728;4.160;2022-07-23T06:44:28;19.70;99.90
57636;DHT22;43465;50.728;4.160;2022-07-23T06:46:54;19.70;99.90
57636;DHT22;43465;50.728;4.160;2022-07-23T06:49:20;19.80;99.90
57636;DHT22;43465;50.728;4.160;2022-07-23T06:51:45;19.90;99.90
57636;DHT22;43465;50.728;4.160;2022-07-23T06:54:11;20.10;99.90
57636;DHT22;43465;50.728;4.160;2022-07-23T06:56:37;20.20;99.90
57636;DHT22;43465;50.728;4.160;2022-07-23T06:59:03;20.20;99.90
57636;DHT22;43465;50.728;4.160;2022-07-23T07:01:28;20.20;99.90
57636;DHT22;43465;50.728;4.160;2022-07-23T07:03:54;20.10;99.90
57636;DHT22;43465;50.728;4.160;2022-07-23T07:06:20;20.20;99.90
57636;DHT22;43465;50.728;4.160;2022-07-23T07:08:46;20.30;99.90
57636;DHT22;43465;50.728;4.160;2022-07-23T07:11:11;20.40;99.90
57636;DHT22;43465;50.728;4.160;2022-07-23T07:13:38;20.50;99.90
57636;DHT22;43465;50.728;4.160;2022-07-23T07:16:04;20.60;99.90
57636;DHT22;43465;50.728;4.160;2022-07-23T07:18:29;20.70;99.90
57636;DHT22;43465;50.728;4.160;2022-07-23T07:20:56;20.60;99.90
57636;DHT22;43465;50.728;4.160;2022-07-23T07:23:22;20.50;99.90
57636;DHT22;43465;50.728;4.160;2022-07-23T07:25:47;20.80;99.90
57636;DHT22;43465;50.728;4.160;2022-07-23T07:28:13;21.00;99.90
57636;DHT22;43465;50.728;4.160;2022-07-23T07:30:39;20.80;99.90
57636;DHT22;43465;50.728;4.160;2022-07-23T07:33:04;20.80;99.90
57636;DHT22;43465;50.728;4.160;2022-07-23T07:35:30;20.60;99.90
57636;DHT22;43465;50.728;4.160;2022-07-23T07:37:58;20.60;99.90
57636;DHT22;43465;50.728;4.160;2022-07-23T07:40:23;20.70;99.90
57636;DHT22;43465;50.728;4.160;2022-07-23T07:42:53;20.80;99.90
57636;DHT22;43465;50.728;4.160;2022-07-23T07:45:22;21.00;99.90
57636;DHT22;43465;50.728;4.160;2022-07-23T07:47:50;21.10;99.90
57636;DHT22;43465;50.728;4.160;2022-07-23T07:50:16;21.20;99.90
57636;DHT22;43465;50.728;4.160;2022-07-23T07:52:42;21.50;99.90
57636;DHT22;43465;50.728;4.160;2022-07-23T07:55:09;21.60;99.90
57636;DHT22;43465;50.728;4.160;2022-07-23T07:57:35;21.80;99.90
57636;DHT22;43465;50.728;4.160;2022-07-23T08:00:01;21.80;99.90
57636;DHT22;43465;50.728;4.160;2022-07-23T08:02:27;21.90;99.90
57636;DHT22;43465;50.728;4.160;2022-07-23T08:04:52;22.00;99.90
57636;DHT22;43465;50.728;4.160;2022-07-23T08:07:18;22.10;99.90
57636;DHT22;43465;50.728;4.160;2022-07-23T08:09:44;22.10;99.90
57636;DHT22;43465;50.728;4.160;2022-07-23T08:12:10;21.90;99.90
57636;DHT22;43465;50.728;4.160;2022-07-23T08:14:35;22.00;99.90
57636;DHT22;43465;50.728;4.160;2022-07-23T08:17:01;22.00;99.90
57636;DHT22;43465;50.728;4.160;2022-07-23T08:19:27;22.10;99.90
57636;DHT22;43465;50.728;4.160;2022-07-23T08:21:52;22.20;99.90
57636;DHT22;43465;50.728;4.160;2022-07-23T08:24:18;22.40;99.90
57636;DHT22;43465;50.728;4.160;2022-07-23T08:26:44;22.40;99.90
57636;DHT22;43465;50.728;4.160;2022-07-23T08:29:09;22.40;99.90
57636;DHT22;43465;50.728;4.160;2022-07-23T08:31:35;22.30;99.90
57636;DHT22;43465;50.728;4.160;2022-07-23T08:34:00;22.30;99.90
57636;DHT22;43465;50.728;4.160;2022-07-23T08:36:28;22.30;99.90
57636;DHT22;43465;50.728;4.160;2022-07-23T08:38:54;22.40;99.90
57636;DHT22;43465;50.728;4.160;2022-07-23T08:41:20;22.50;99.90
57636;DHT22;43465;50.728;4.160;2022-07-23T08:43:46;22.70;99.90
57636;DHT22;43465;50.728;4.160;2022-07-23T08:46:13;22.90;99.90
57636;DHT22;43465;50.728;4.160;2022-07-23T08:48:39;22.90;99.90
57636;DHT22;43465;50.728;4.160;2022-07-23T08:51:05;22.90;99.90
57636;DHT22;43465;50.728;4.160;2022-07-23T08:53:32;23.00;99.90
57636;DHT22;43465;50.728;4.160;2022-07-23T08:56:01;23.00;99.90
57636;DHT22;43465;50.728;4.160;2022-07-23T08:58:27;23.00;99.90
57636;DHT22;43465;50.728;4.160;2022-07-23T09:00:52;23.00;99.90
57636;DHT22;43465;50.728;4.160;2022-07-23T09:03:24;23.10;99.90
57636;DHT22;43465;50.728;4.160;2022-07-23T09:05:51;23.20;99.90
57636;DHT22;43465;50.728;4.160;2022-07-23T09:08:20;23.20;99.90
57636;DHT22;43465;50.728;4.160;2022-07-23T09:10:48;23.30;99.90
57636;DHT22;43465;50.728;4.160;2022-07-23T09:13:34;23.50;98.70
57636;DHT22;43465;50.728;4.160;2022-07-23T09:16:03;23.60;98.10
57636;DHT22;43465;50.728;4.160;2022-07-23T09:23:38;23.60;96.90
57636;DHT22;43465;50.728;4.160;2022-07-23T09:26:20;23.60;98.00
57636;DHT22;43465;50.728;4.160;2022-07-23T09:29:19;23.70;98.00
57636;DHT22;43465;50.728;4.160;2022-07-23T09:31:51;23.80;97.90
57636;DHT22;43465;50.728;4.160;2022-07-23T09:36:45;24.00;97.50
57636;DHT22;43465;50.728;4.160;2022-07-23T09:39:11;24.10;97.50
57636;DHT22;43465;50.728;4.160;2022-07-23T09:41:45;24.30;96.90
57636;DHT22;43465;50.728;4.160;2022-07-23T09:44:19;24.40;95.90
57636;DHT22;43465;50.728;4.160;2022-07-23T09:46:47;24.50;95.80
57636;DHT22;43465;50.728;4.160;2022-07-23T09:49:19;24.50;95.60
57636;DHT22;43465;50.728;4.160;2022-07-23T09:51:56;24.60;95.70
57636;DHT22;43465;50.728;4.160;2022-07-23T09:57:00;24.60;95.10
57636;DHT22;43465;50.728;4.160;2022-07-23T09:59:31;24.70;94.30
57636;DHT22;43465;50.728;4.160;2022-07-23T10:01:59;24.80;94.40
57636;DHT22;43465;50.728;4.160;2022-07-23T10:04:27;24.90;93.30
57636;DHT22;43465;50.728;4.160;2022-07-23T10:06:55;24.90;93.70
57636;DHT22;43465;50.728;4.160;2022-07-23T10:09:31;24.90;93.10
57636;DHT22;43465;50.728;4.160;2022-07-23T10:11:58;25.00;94.00
57636;DHT22;43465;50.728;4.160;2022-07-23T10:14:38;25.20;92.50
57636;DHT22;43465;50.728;4.160;2022-07-23T10:17:05;25.30;91.90
57636;DHT22;43465;50.728;4.160;2022-07-23T10:19:32;25.30;91.90
57636;DHT22;43465;50.728;4.160;2022-07-23T10:33:45;25.40;91.00
57636;DHT22;43465;50.728;4.160;2022-07-23T10:38:51;25.40;91.10
57636;DHT22;43465;50.728;4.160;2022-07-23T10:41:40;25.40;90.70
57636;DHT22;43465;50.728;4.160;2022-07-23T10:44:11;25.50;92.00
57636;DHT22;43465;50.728;4.160;2022-07-23T10:47:03;25.50;92.50
57636;DHT22;43465;50.728;4.160;2022-07-23T10:49:33;25.50;90.10
57636;DHT22;43465;50.728;4.160;2022-07-23T10:54:41;25.20;90.60
57636;DHT22;43465;50.728;4.160;2022-07-23T10:57:08;24.90;90.60
57636;DHT22;43465;50.728;4.160;2022-07-23T11:02:38;25.00;91.20
57636;DHT22;43465;50.728;4.160;2022-07-23T11:05:07;25.20;91.30
57636;DHT22;43465;50.728;4.160;2022-07-23T11:08:09;25.30;89.30
57636;DHT22;43465;50.728;4.160;2022-07-23T11:16:17;25.70;90.20
57636;DHT22;43465;50.728;4.160;2022-07-23T11:24:05;26.30;87.50
57636;DHT22;43465;50.728;4.160;2022-07-23T11:32:23;26.60;87.40
57636;DHT22;43465;50.728;4.160;2022-07-23T11:34:51;26.60;82.50
57636;DHT22;43465;50.728;4.160;2022-07-23T11:39:57;26.50;85.00
57636;DHT22;43465;50.728;4.160;2022-07-23T11:42:23;26.40;85.80
57636;DHT22;43465;50.728;4.160;2022-07-23T11:44:49;26.50;89.90
57636;DHT22;43465;50.728;4.160;2022-07-23T11:47:15;26.80;88.00
57636;DHT22;43465;50.728;4.160;2022-07-23T11:52:18;27.10;87.70
57636;DHT22;43465;50.728;4.160;2022-07-23T11:54:57;27.20;88.50
57636;DHT22;43465;50.728;4.160;2022-07-23T11:57:31;27.30;79.90
57636;DHT22;43465;50.728;4.160;2022-07-23T12:00:08;27.40;80.30
57636;DHT22;43465;50.728;4.160;2022-07-23T12:02:39;27.50;83.70
57636;DHT22;43465;50.728;4.160;2022-07-23T12:05:06;27.60;85.50
57636;DHT22;43465;50.728;4.160;2022-07-23T12:07:43;27.70;83.80
57636;DHT22;43465;50.728;4.160;2022-07-23T12:10:16;27.70;81.40
57636;DHT22;43465;50.728;4.160;2022-07-23T12:15:14;27.80;82.10
57636;DHT22;43465;50.728;4.160;2022-07-23T12:17:42;27.80;78.40
57636;DHT22;43465;50.728;4.160;2022-07-23T12:20:10;27.90;80.90
57636;DHT22;43465;50.728;4.160;2022-07-23T12:22:46;27.90;81.20
57636;DHT22;43465;50.728;4.160;2022-07-23T12:25:14;28.00;78.90
57636;DHT22;43465;50.728;4.160;2022-07-23T12:27:41;28.10;80.10
57636;DHT22;43465;50.728;4.160;2022-07-23T12:30:28;28.10;76.50
57636;DHT22;43465;50.728;4.160;2022-07-23T12:32:56;28.10;79.10
57636;DHT22;43465;50.728;4.160;2022-07-23T12:35:28;28.10;81.50
57636;DHT22;43465;50.728;4.160;2022-07-23T12:38:03;28.10;78.30
57636;DHT22;43465;50.728;4.160;2022-07-23T12:41:16;28.00;77.70
57636;DHT22;43465;50.728;4.160;2022-07-23T12:45:52;27.60;76.60
57636;DHT22;43465;50.728;4.160;2022-07-23T12:51:30;27.50;78.50
57636;DHT22;43465;50.728;4.160;2022-07-23T12:54:10;27.50;77.50
57636;DHT22;43465;50.728;4.160;2022-07-23T12:56:39;27.60;81.40
57636;DHT22;43465;50.728;4.160;2022-07-23T12:59:11;27.70;83.10
57636;DHT22;43465;50.728;4.160;2022-07-23T13:01:41;27.80;77.90
57636;DHT22;43465;50.728;4.160;2022-07-23T13:04:21;27.80;78.70
57636;DHT22;43465;50.728;4.160;2022-07-23T13:06:49;27.90;77.00
57636;DHT22;43465;50.728;4.160;2022-07-23T13:09:21;27.80;76.20
57636;DHT22;43465;50.728;4.160;2022-07-23T13:11:48;27.70;74.00
57636;DHT22;43465;50.728;4.160;2022-07-23T13:14:15;27.50;76.00
57636;DHT22;43465;50.728;4.160;2022-07-23T13:16:41;27.50;79.50
57636;DHT22;43465;50.728;4.160;2022-07-23T13:19:08;27.60;81.20
57636;DHT22;43465;50.728;4.160;2022-07-23T13:21:34;27.90;79.10
57636;DHT22;43465;50.728;4.160;2022-07-23T13:24:00;28.20;79.40
57636;DHT22;43465;50.728;4.160;2022-07-23T13:26:26;28.40;79.10
57636;DHT22;43465;50.728;4.160;2022-07-23T13:28:52;28.50;76.40
57636;DHT22;43465;50.728;4.160;2022-07-23T13:31:18;28.70;76.80
57636;DHT22;43465;50.728;4.160;2022-07-23T13:33:44;28.80;77.90
57636;DHT22;43465;50.728;4.160;2022-07-23T13:36:09;28.80;75.30
57636;DHT22;43465;50.728;4.160;2022-07-23T13:38:35;28.90;78.00
57636;DHT22;43465;50.728;4.160;2022-07-23T13:41:01;28.90;75.40
57636;DHT22;43465;50.728;4.160;2022-07-23T13:43:28;29.10;77.30
57636;DHT22;43465;50.728;4.160;2022-07-23T13:45:55;29.10;71.70
57636;DHT22;43465;50.728;4.160;2022-07-23T13:48:21;28.80;71.20
57636;DHT22;43465;50.728;4.160;2022-07-23T13:50:47;28.40;73.00
57636;DHT22;43465;50.728;4.160;2022-07-23T13:53:15;28.10;76.30
57636;DHT22;43465;50.728;4.160;2022-07-23T13:55:42;28.00;78.50
57636;DHT22;43465;50.728;4.160;2022-07-23T13:58:08;28.10;76.50
57636;DHT22;43465;50.728;4.160;2022-07-23T14:00:40;28.10;73.30
57636;DHT22;43465;50.728;4.160;2022-07-23T14:03:06;28.20;73.50
57636;DHT22;43465;50.728;4.160;2022-07-23T14:05:32;28.20;77.70
57636;DHT22;43465;50.728;4.160;2022-07-23T14:07:58;28.30;75.50
57636;DHT22;43465;50.728;4.160;2022-07-23T14:10:24;28.40;77.10
57636;DHT22;43465;50.728;4.160;2022-07-23T14:12:51;28.60;75.70
57636;DHT22;43465;50.728;4.160;2022-07-23T14:15:18;28.80;72.60
57636;DHT22;43465;50.728;4.160;2022-07-23T14:17:45;28.90;72.50
57636;DHT22;43465;50.728;4.160;2022-07-23T14:20:12;29.00;73.40
57636;DHT22;43465;50.728;4.160;2022-07-23T14:22:38;29.10;74.80
57636;DHT22;43465;50.728;4.160;2022-07-23T14:25:05;29.20;72.00
57636;DHT22;43465;50.728;4.160;2022-07-23T14:27:31;29.60;71.90
57636;DHT22;43465;50.728;4.160;2022-07-23T14:29:58;30.20;70.80
57636;DHT22;43465;50.728;4.160;2022-07-23T14:32:24;30.50;67.10
57636;DHT22;43465;50.728;4.160;2022-07-23T14:34:50;30.50;66.00
57636;DHT22;43465;50.728;4.160;2022-07-23T14:37:17;30.90;67.50
57636;DHT22;43465;50.728;4.160;2022-07-23T14:39:43;31.10;66.30
57636;DHT22;43465;50.728;4.160;2022-07-23T14:42:10;31.60;63.30
57636;DHT22;43465;50.728;4.160;2022-07-23T14:44:37;32.10;64.00
57636;DHT22;43465;50.728;4.160;2022-07-23T14:47:04;32.10;60.00
57636;DHT22;43465;50.728;4.160;2022-07-23T14:49:32;32.20;63.60
57636;DHT22;43465;50.728;4.160;2022-07-23T14:51:58;32.40;61.00
57636;DHT22;43465;50.728;4.160;2022-07-23T14:54:24;33.10;59.40
57636;DHT22;43465;50.728;4.160;2022-07-23T14:56:54;34.20;59.70
57636;DHT22;43465;50.728;4.160;2022-07-23T14:59:20;35.10;57.50
57636;DHT22;43465;50.728;4.160;2022-07-23T15:01:46;36.10;53.60
57636;DHT22;43465;50.728;4.160;2022-07-23T15:04:12;36.80;52.20
57636;DHT22;43465;50.728;4.160;2022-07-23T15:06:38;36.80;51.80
57636;DHT22;43465;50.728;4.160;2022-07-23T15:09:04;36.20;51.60
57636;DHT22;43465;50.728;4.160;2022-07-23T15:11:30;35.60;52.40
57636;DHT22;43465;50.728;4.160;2022-07-23T15:14:00;35.10;52.60
57636;DHT22;43465;50.728;4.160;2022-07-23T15:16:26;35.50;53.20
57636;DHT22;43465;50.728;4.160;2022-07-23T15:18:52;35.00;51.20
57636;DHT22;43465;50.728;4.160;2022-07-23T15:21:18;34.70;52.50
57636;DHT22;43465;50.728;4.160;2022-07-23T15:23:43;34.60;53.90
57636;DHT22;43465;50.728;4.160;2022-07-23T15:26:09;34.40;54.30
57636;DHT22;43465;50.728;4.160;2022-07-23T15:28:35;34.80;52.80
57636;DHT22;43465;50.728;4.160;2022-07-23T15:31:01;35.30;52.30
57636;DHT22;43465;50.728;4.160;2022-07-23T15:33:27;36.00;51.20
57636;DHT22;43465;50.728;4.160;2022-07-23T15:35:53;35.90;50.10
57636;DHT22;43465;50.728;4.160;2022-07-23T15:38:20;36.20;50.30
57636;DHT22;43465;50.728;4.160;2022-07-23T15:40:46;37.00;48.50
57636;DHT22;43465;50.728;4.160;2022-07-23T15:43:12;37.80;48.60
57636;DHT22;43465;50.728;4.160;2022-07-23T15:45:39;38.10;46.30
57636;DHT22;43465;50.728;4.160;2022-07-23T15:48:05;38.50;46.80
57636;DHT22;43465;50.728;4.160;2022-07-23T15:50:31;39.00;45.90
57636;DHT22;43465;50.728;4.160;2022-07-23T15:52:57;39.00;45.30
57636;DHT22;43465;50.728;4.160;2022-07-23T15:55:23;38.40;45.20
57636;DHT22;43465;50.728;4.160;2022-07-23T15:57:49;37.40;45.00
57636;DHT22;43465;50.728;4.160;2022-07-23T16:00:15;36.50;46.00
57636;DHT22;43465;50.728;4.160;2022-07-23T16:02:40;35.30;48.40
57636;DHT22;43465;50.728;4.160;2022-07-23T16:05:06;34.20;49.00
57636;DHT22;43465;50.728;4.160;2022-07-23T16:07:32;33.50;52.20
57636;DHT22;43465;50.728;4.160;2022-07-23T16:10:03;32.90;54.10
57636;DHT22;43465;50.728;4.160;2022-07-23T16:12:29;32.50;55.10
57636;DHT22;43465;50.728;4.160;2022-07-23T16:14:54;32.00;53.20
57636;DHT22;43465;50.728;4.160;2022-07-23T16:17:20;31.60;53.80
57636;DHT22;43465;50.728;4.160;2022-07-23T16:19:46;31.20;55.20
57636;DHT22;43465;50.728;4.160;2022-07-23T16:22:11;30.60;56.60
57636;DHT22;43465;50.728;4.160;2022-07-23T16:24:41;30.20;56.40
57636;DHT22;43465;50.728;4.160;2022-07-23T16:27:07;29.80;57.00
57636;DHT22;43465;50.728;4.160;2022-07-23T16:29:32;29.40;57.90
57636;DHT22;43465;50.728;4.160;2022-07-23T16:31:58;29.10;59.10